SMRA10 UAOL 242100
AAXX 24211
11423 27556 /0103 10090 20087 39332 42821 52004 76286 333 60015 82/21 88/43 555 398// 50154 60153 70150 80139=
11464 41482 83306 10079 20067 39225 42820 51005 78082 8787/ 333 81810 86623 555 392//=
11487 27557 /2302 10100 20098 39589 40207 53003 76281 333 69965 88/31 555 399// 50160 60161 70161 80166 90155=
11518 22584 82702 10117 20080 39765 40198 53004 885// 333 60005 85629 88635 555 378//=
11603 27231 /3002 10101 20088 39719 40197 52007 78161 333 69945 88/03 555 392// 50166 60166 70166 80165 90158=
11659 27880 /3302 10095 20079 39563 40197 52006 70011 333 60005 87/58 555 390// 50160 60161 70149 80154 90155=
11723 22882 73103 10145 20073 39893 40184 52009 87070 333 60005 87357 555 362// 50184 60185 70184 80175 90166=
11782 21568 89901 10128 20128 39874 40183 52010 76062 8657/ 333 69905 86623 88356 555 300// 50174 60180=
11801 41770 73501 10148 20078 39943 40192 52009 70282 82590 333 82650 87359 555 10191 363//=
11813 46/// /3503 10155 20078 39842 40181 52008=
11816 42782 63002 10163 20088 30023 40182 52009 84540 333 84656=
11819 46/// /2902 10122 20094 39974 40187 52008=
11826 46/// /3102 10130 20091 39986 40182 52008=
11841 41670 89901 10122 20111 39813 40182 51010 76122 885// 333 83645 88656=
11855 45/81 /0000 10124 20098 30015 40178 52008=
11856 46/// /9901 10124 20087 39867 40180 52007=
11858 46/// /1701 10141 20105 30034 40182 52007=
11867 45/84 /9901 10125 20109 39869 40179 52008=
11880 46/// /9901 10134 20098 30011 40179 52009=
11903 42775 60000 10119 20095 39805 40179 52010 85542 333 81650 84363=
11916 46/// /3308 10008 20008 37994 48487 52005=
11918 46/// /2502 10096 20085 39371 42802 52005=
11927 46/// /2401 10123 20121 39914 40171 52007=
11930 46/// /9903 11019 21020 37378 47063 52003=
11933 46/// /0000 10062 20053 38684 48502 52006=
11934 41670 83102 10103 20084 39367 42801 51010 76122 885// 333 82640 88656=
11938 46/// /9901 10095 20060 39130 42793 52007=
11952 46/// /9901 10108 20084 39358 42801 52010=
11955 46/// /0000 10118 20104 39809 40174 52006=
11958 46/// ///// 10060 20053 38765 48500 52005=
11968 41870 69901 10127 20109 39897 40172 52005 70286 86070 333 84358=
11976 46/// /9901 10118 20112 39916 40175 52010=
11978 46/// ///// 10127 20124 30041 40169 52003=
11993 46/// /0000 10122 20114 39963 40176 52005=
12160 41470 72502 10127 20097 39929 40151 51004 70182 872// 333 91204=
12195 41784 82503 10113 20096 39909 40132 52005 70162 8551/ 333 91203=
12205 42580 12302 10133 20115 30167 40176 52011 81400 333 91203=
12235 42981 23202 10127 20094 39959 40166 52011 82030 333 91203=
12250 42984 70000 10137 20089 30075 40162 52013 8703/ 333 91202=
12270 41684 63101 10107 20081 39975 40155 52013 70182 83208 333 91203=
12280 42684 73002 10121 20093 39989 40144 51011 86508 333 91203=
12295 42881 52801 10097 20089 39956 40140 51010 83530 333 91203=
12300 41584 32803 10137 20116 30089 40178 51014 70181 83960 333 91204=
12330 41870 62702 10119 20106 30068 40175 52015 70182 84530 333 91204=
12375 42980 32603 10118 20103 30024 40152 52012 81032 333 91204=
12400 41656 83001 10118 20105 39958 40191 52015 78122 889// 333 91204=
12424 41261 82903 10127 20118 30034 40180 51008 78082 879// 333 82705 83911 91108 91205=
12435 42562 72502 10109 20107 30003 40172 52012 8153/ 333 91203=
12465 42363 72602 10105 20097 39948 40167 52010 81638 333 91203=
12495 42879 72603 10112 20104 39870 40158 52011 875// 333 91203=
12530 42670 72702 10135 20104 39981 40178 51011 875// 333 91204=
12566 42582 72401 10128 20112 39886 40175 52009 879// 333 91203=
12570 41784 73002 10101 20089 39855 40170 52012 70182 81538 333 91202=
12580 42780 72402 10123 20110 39907 40168 52008 875// 333 91204=
12772 46/// /2100 10124 20092 39974 40170 53010=
12822 46/// /0400 10136 20113 48///=
12843 41985 72502 10158 20097 30010 40176 53004 70122 86072=
12882 44970 41401 10137 20099 30039 40169 52007 70111 83072=
12925 46/// /3300 10117 20114 30022 40192 53006=
12942 46/// /3001 10137 20083 39947 40188 53004=
12982 41980 4//// 48/// 70311 83042=
13571 42698 60000 10166 20128 39640 40158 51007 86500 333 86696=
13575 42698 73602 10138 20066 3//// 4//// 51003 87600 333 87696=
13578 42598 63402 10162 20097 39289 48506 52007 86500 333 86695=
13580 42698 70501 10140 20095 3//// 4//// 5//// 87500 333 87696=
13581 42698 70000 10150 20060 39202 48488 51002 87500 333 87696=
13583 42698 60201 10157 20086 39484 40157 51004 86500 333 86696=
13585 42679 70000 10156 20051 39990 40159 51008 885// 333 85696=
13586 32970 30000 10162 20098 39893 40174 54000 83030 333 83360=
13588 42697 63103 10174 20098 39813 40164 50006 82530 333 82596 84398=
13590 42698 62902 10133 20051 39192 48514 54000 86500 333 86696=
13591 42698 51801 10160 20085 39776 40158 51006 85500 333 85696=
13592 42698 40000 10167 20114 30016 40166 51006 82530 333 82696 82399=
13594 42998 71102 10156 20097 39575 40172 52009 87030 333 87399=
13595 42698 50000 10171 20118 3//// 4//// 5//// 83450 333 83696=
13598 42698 60000 10124 20081 39217 48505 52009 86500 333 86696=
13601 42960 21403 10210 20111 30001 40118 52007 82030 333 82360=
13610 42960 50000 10186 20000 39743 40153 54000 85050 333 85360=
13615 45978 /1401 10189 20152 30092 40137 51005 8////=
13619 42660 70904 10168 20038 39411 42803 52008 87500 333 87640=
13622 42962 23204 10204 20126 30127 40135 52008 80001=
13623 42960 41406 10214 20027 30141 40146 52004 84050 333 84360=
13624 42960 52704 10200 20130 30094 40132 52010 85030 333 85360=
13625 42960 23204 10210 20111 39905 40127 52005 82030 333 82360=
13629 42660 71406 10152 20115 39111 42761 52010 87500 333 87640=
13633 42965 00000 10230 20142 30086 40122 54002=
14241 42884 50401 10166 20108 30055 40181 50009 81502=
14284 42970 41602 10135 20120 30077 40184 52006 84030=
14307 42984 30602 10156 20113 30093 40169 52003 80002 333 99020=
14317 42780 70000 10186 20129 30067 40169 57002 82170=
14431 42980 20000 10153 20124 30075 40166 51005 82030=
14444 42980 20202 10201 20065 30133 40158 51009 82030=
14445 42770 10605 10210 20056 30004 40153 51005 81500 333 81697 92312=
14474 42980 10208 10214 20045 39961 40144 52003 81030=
14542 42975 20000 10146 20112 30002 40188 52009 80001 333 82080 95900=
14549 46/// /1801 1//// 2//// 3//// 4//// 5////=
14652 41004 80517 10020 20016 37962 48521 54000 74622 885// 333 88600=
15007 23/// /2402 10098 20084 39719 40188 52004 333 60007 91003 91103=
15015 22698 32502 10110 20073 39586 42801 52004 81341 333 60007=
15020 22997 33200 10121 20111 39984 40180 52006 83070 333 60007 91001 91102=
15023 22998 31801 10125 20094 39745 40165 52004 83070 333 60007 91001 91102=
15056 22597 31401 10158 20062 39833 40176 51007 83500 333 55300 0//// 20000 =
15069 23/// /2203 10067 20052 39123 42810 51005 333 60007 91003 91103=
15073 23/// ///// 10109 20091 39723 40188 50004 333 60007 91000 91102=
15090 22597 33600 10138 20101 30089 40180 51006 83500 333 55300 10185 20000 =
15108 22299 42703 10029 20004 38110 48516 50002 81540 333 55300 0//// 20000 =
15109 22597 62602 10133 20106 39752 40182 51007 83570 333 60007 91003 91103=
15111 23/// ///03 10127 20105 39910 40170 50005 333 60007 91004 91104=
15113 26/// /1802 10132 20098 30015 40177 51007 333 55300 0//// 20000 3//// =
15120 22997 32502 10116 20109 39697 40188 52006 83040 333 55300 10242 3//// 60007 91002 91103=
15127 22998 61002 10092 20069 39316 42810 51005 86070 333 55300 0//// 20000 =
15148 22997 81801 10058 20048 38729 48501 50003 8807/ 333 55300 0//// 20000 =
15150 22597 50501 10126 20106 39967 40178 52009 82530 333 60007 91001 91102=
15154 22997 10301 10123 20100 30033 40175 51008 81040 333 60007 91001 91102=
15168 26/// /2000 1//// 2//// 39569 42805 51007 333 69967 91001 91102=
15170 22998 20101 10068 20062 39413 42806 51009 82040 333 60007 91002 91103=
15194 23/// /2904 10140 20091 39890 40180 51011 333 60007 91005 91105=
15197 23/// /2601 10173 20096 39972 40178 51006 333 55300 0//// 20000 3//// =
15200 22598 42301 10151 20114 30037 40178 52007 82460 333 60007 91001 91102=
15215 23/// /0603 10111 20080 39589 42810 51005 333 55300 0//// 20000 3//// =
15217 23/// /0202 10094 20073 39522 42810 51006 333 60007 91003 91104=
15219 23/// /3202 10160 20119 30042 40164 52008 333 55300 60007 91003 91103=
15230 22997 52900 10124 20098 39897 40187 52006 85070 333 55300 10164 3//// 60007 91001 91102=
15238 23/// /0501 10118 20099 39575 42812 52008 333 60007 91001 91102=
15260 22698 62604 10110 20087 39659 40189 52006 86300 333 60007 91005 91105=
15261 23/// /1401 10093 20085 39384 42828 52006 333 55300 0//// 20000 3//// =
15262 22699 72804 10042 20025 38233 48517 52002 87070 333 55300 0//// 20000 =
15265 23/// /2201 10172 20115 30102 40175 52006 333 55300 0//// 20000 3//// =
15280 21599 21101 11011 21011 37528 47083 52003 70141 82030 333 55300 0//// =
15292 22998 71601 10131 20106 39898 40188 52008 87070 333 60007 91002 91103=
15300 22997 61804 10119 20100 39557 42808 52003 86070 333 60007 91005 91105=
15301 22598 22301 10081 20044 38652 48532 52003 81460 333 55300 0//// 20000 =
15302 22998 31501 10072 20066 38951 48510 52003 83030 333 55300 0//// 20000 =
15307 25/70 /3302 10160 20105 39992 40174 52009 7000/ 333 55300 0//// 20000 =
15310 22998 21503 10188 20122 30095 40178 52009 82030 333 55300 10195 20000 =
15324 25/70 /3301 10092 20072 39394 42810 52007 7000/ 333 55300 0//// 20000 =
15325 22999 12701 10060 20034 38503 48514 52004 81040 333 60007 91002 91102=
15328 26/// /3601 10120 20095 39838 40186 52008 333 55300 0//// 20000 3//// =
15335 22997 02103 10170 20115 30173 40179 50008 333 60007 91006 91106=
15336 25/70 /2301 10143 20143 30174 40179 51005 7000/ 333 55300 0//// 20000 =
15346 22997 33402 10140 20098 39895 40180 52007 83070 333 60007 91003 91103=
15349 22998 73102 10138 20087 39637 40182 52007 87070 333 55300 0//// 20000 =
15350 22597 51701 10170 20128 30063 40180 52009 85500 333 60007 91001 91102=
15360 22998 62405 10190 20141 30164 40178 51007 86070 333 60007 91005 91108 =
15375 22997 63303 10139 20116 39823 40177 52005 86070 333 60007 91004 91104=
15377 22597 31002 10162 20109 39960 40171 52007 83300 333 60007 91003 91103=
15387 26/// /2401 10169 20127 30177 40181 51006 333 55300 0//// 20000 3//// =
15402 23/// /1001 10151 20111 30097 40170 52006 333 55300 0//// 20000 3//// =
15405 22997 31603 10160 20139 30118 40180 52008 83070 333 55300 0//// 20000 =
15406 23/// /1302 10173 20140 30132 40178 52007 333 60007 91005 91107=
15408 23/// /1604 10169 20141 39920 40181 50006 333 55300 60007 91006 91106=
15409 23/// /2703 10156 20112 30136 40184 51007 333 55300 0//// 2//// 3//// =
15410 22997 00401 10159 20081 30082 40175 52008 333 60007 91002 91103=
15419 23/// /3601 10142 20111 39988 40180 52006 333 60007 91002 91103=
15420 22997 03601 10118 20114 30059 40169 52007 333 55300 0//// 20000 3//// =
15421 23/// /0301 10147 20113 30070 40179 52007 333 55300 0//// 20000 3//// =
15422 22997 02301 10178 20100 30075 40175 52007 333 55300 60007 91003 91103=
15425 22997 41605 10166 20133 30114 40176 52009 84070 333 60007 91006 91108=
15434 22997 00601 10145 20100 39969 40176 52006 333 60007 91002 91102=
15444 23/// /1502 10174 2//// 30109 40178 51007 333 55300 60077 91003 91104=
15450 22997 20101 10171 20067 39942 40171 52005 82030 333 55300 10217 3//// 60007 91002 91102=
15455 26/// /3501 10163 20093 30043 40172 52008 333 55300 0//// 20000 3//// =
15460 22997 21601 10174 20134 30153 40176 52010 82070 333 60007 91003 91104=
15462 22597 71101 10164 20127 30098 40184 52006 87900 333 60007 91002 91104=
15470 22597 43201 10169 20101 30047 40170 52009 82340 333 60007 91002 91104=
15475 22997 11800 10133 20133 30150 40170 52007 81040 333 55300 0//// 20000 =
15480 22597 40201 10186 20125 30164 40180 50005 84500 333 60007 91004 91104 =
15489 22997 01702 10145 20103 30078 40170 52008 333 60007 91002 91103=
15491 22997 02301 10155 20118 30139 40169 52007 333 60007 91001 91101=
15499 23/// /0201 10180 20132 30172 40181 51004 333 55300 60007 91003 91103=
15549 42570 61602 10162 20147 39763 40166 52003 86500 333 10189 20159 555 59=
15552 42560 61101 10174 20123 30132 40179 52007 86500 333 10190 20174 555 57=
15614 42670 40000 10150 20078 39484 40169 52006 84100 333 10183 20147 555 562//=
15615 41/88 22306 11012 21022 37152 47094 52003 70141 82530 333 10012 21012 555 593//=
15640 42974 10000 10164 20162 39876 40179 52011 81030 333 10182 20164 555 59=
15655 42570 30000 10174 20143 30144 40176 52004 83200 333 10191 20172 555 58=
15730 42670 80000 10166 20147 39788 40172 52013 82350 333 10191 20163 555 58=
17031 42570 63004 10218 20160 30152 40158 58001 84130 333 84828 86357 91113=
17061 42970 50408 10204 20146 30088 40156 50001 85030 333 85360 91113 92438=
17063 42560 60411 10199 20139 30041 40157 50001 83250 333 83830 86360 91121=
17064 42560 50803 10208 20131 30131 40151 50001 82150 333 82830 85359 91110=
17066 42660 73201 10201 20171 30067 40156 50000 84240 333 84840 85360 91108=
17072 42670 73402 10195 20161 39976 40145 50000 85250 333 85835 87360 91107=
17077 42670 63001 10187 20170 39590 40138 50001 84250 333 84834 86360 91104=
17080 42665 42902 10188 20145 39280 40109 52005 84200 333 84835 91107=
17095 41570 70702 10136 20094 38146 48499 52003 71782 87900 333 82925 85830 91108=
17118 42660 49902 10197 20153 39872 40138 50005 84200 333 84835 91116=
17127 42665 20109 10174 20146 39182 40107 50005 82100 333 82840 91116=
17131 42960 41208 10209 20135 39203 40102 50005 84030 333 84360=
17135 42970 20607 10205 20130 39272 40098 52008 82030 333 82360 91115=
17143 42660 20713 10209 20131 30125 40141 50007 82100 333 82835 91122=
17165 42970 53403 10244 20112 38992 40032 52009 83031 333 83360 85070=
17175 42665 40805 10227 20132 30119 40123 51011 82130 333 82840 84360 91115 =
17185 42970 32401 10163 20141 39143 40104 51008 83030 333 83360 91111=
17189 42670 43407 10174 20149 39007 48498 51011 84200 333 84835 91111=
17192 42675 30703 10211 20121 39040 40081 50003 83200 333 83835 91108=
17197 42660 31604 10239 20099 39051 40047 51009 83100 333 83835=
17208 42970 00000 10182 20087 38200 48484 50000 333 91102=
17232 42970 01403 10242 20191 30079 40108 51004 333 91106 92418=
17238 42670 53001 10223 20094 39039 40072 52010 83230 333 83835 85360 91108=
17239 42670 32301 10197 20108 39002 48496 51006 83200 333 83840 91106=
17241 42670 31004 10209 20130 39140 40088 52013 83200 333 83835=
17246 42970 00000 10211 20142 38976 48494 50004 333 91107=
17256 42960 02916 10244 20173 39476 40051 52005=
17257 42670 52708 10208 20141 39170 40098 52012 83130 333 83835 85360 91116=
17262 42970 02707 10231 20157 39353 40060 50002 333 91116=
17271 42660 21904 10247 20145 39144 40019 50003 82100 333 82840 91117=
17291 42960 00705 10228 20191 30092 40105 50005 333 91110=
17296 42970 30000 10264 20210 30080 40083 50001 80001 333 83070 91106 92408=
17302 42970 00000 10247 20218 30035 40089 51005 333 92418=
17310 42970 02401 10258 20221 30078 40085 50000 333 91104 92438=
17355 42670 42802 10249 20228 39981 40093 50005 84100 333 84840 91115=
17371 42670 32314 10251 20197 39996 40098 50001 83100 333 83835 91124=
17501 12960 00000 10253 20214 30074 40092 50005 333 92427=
17505 12960 00810 10245 20211 39994 40103 50000=
17510 42560 10000 10245 20191 30088 40098 51002 81100 333 81830 92417=
17515 12960 02403 10240 20183 39942 40111 50002=
17521 42560 12805 10237 20201 39955 40085 50002 81100 333 81825=
17530 12960 03604 10232 20192 30046 40101 50004=
17535 12960 00000 10237 20197 30053 40088 50002=
17540 42960 00000 10257 20229 30086 40109 50003 333 92417=
17547 42960 02704 10229 20208 39861 40094 50002 333 92427=
17550 12960 00000 10236 20213 39954 40093 50002 333 92437=
17572 42560 10000 10237 20174 30082 40106 51002 81100 333 81830 92417=



SMUS10 KWBC 242100
AAXX 24214
16008 42570 70604 10118 20079 38568 48528 53017 84130 333 84820 84350=
16020 42968 22603 10182 20133 39888 40164 53019 82040 333 82360=
16021 41460 81405 10070 20060 38010 48516 56001 76066 885// 333 88615=
16022 41/00 92003 10056 20039 37885 48513 53001 76064 333 89/00=
16052 41/01 90519 11020 21030 36683 47119 53011 74542 333 89/01=
16059 32972 33003 10197 20148 39808 40166 52002 83060 333 83365=
16061 41980 32604 10184 20153 39350 42802 54000 70261 83070 333 83360=
16066 32983 52705 10222 20129 39886 40164 52006 8504/ 333 85362=
16076 42965 40204 10197 20126 39883 40162 53007 84070 333 84359=
16080 32660 61202 10236 20107 30030 40159 52006 84058 333 84558 86860=
16088 42970 50604 10208 20100 30043 40157 53001 85030 333 85360=
16098 41565 63603 10210 20153 30115 40165 53005 72162 81331 333 81925 83359=
16099 32960 09901 10210 20132 30145 40167 52007=
16105 32970 01305 10216 20124 30161 40164 52002=
16108 32960 00903 10177 20131 30154 40168 52003=
16110 42998 30601 10186 20132 30163 40167 55001 82031 333 82360 555 0////=
16120 41878 33303 10210 20161 30152 40156 55002 70196 83080 333 83357 98580 555 0300/=
16140 42980 21005 10191 20136 30120 40170 54000 80004 333 82275=
16148 42970 21306 10210 20137 30143 40155 54000 80001=
16149 42968 31304 10200 20123 30141 40156 53001 80006=
16153 42998 39902 10200 20144 39910 40167 53009 80008 555 0////=
16158 42965 11903 10186 20162 30149 40156 51002 81030 333 81364=
16170 32275 51902 10231 20091 30100 40152 52009 82130 333 82840 83360=
16179 42782 31704 10178 20060 39490 42792 54000 82031 333 82356=
16206 42870 50904 10188 20160 30150 40158 53014 85030 333 85358=
16214 46/// /0403 10209 20142 30149 40154 50004 333 55300 20165=
16224 46/// /1205 10182 20136 39850 40160 52009 333 55300 20006=
16230 32970 /2303 10168 20126 30150 40168 52003=
16239 32980 30904 10206 20139 30002 40158 52002 83040 333 83360=
16242 42984 20904 10216 20160 30152 40157 53007 80001 333 82070=
16245 42965 00503 10200 20183 30121 40147 56005=
16252 42982 60000 10146 20062 39256 42812 51005 82071 333 82358=
16253 42970 40404 10200 20120 30141 40152 51010 80001=
16258 42970 33410 10128 20066 39176 42781 52003 80001=
16263 42775 40305 10116 20034 38933 48506 53000 82041 333 82356=
16270 42968 03605 10206 20100 30089 40153 50000=
16280 42898 43306 10228 20207 39928 40141 51007 84000 333 84357 555 0////=
16289 42970 00307 10209 20047 30071 40152 50004=
16310 42998 33600 10224 20178 39930 40144 5//// 80001 555 0////=
16312 42960 23105 10150 20078 39741 40152 53005 80001=
16320 32965 03307 10216 20103 30127 40144 52001=
16325 42998 03004 10190 20089 30133 40147 52010 333 98075 555 0////=
16344 42360 31006 10090 20081 38310 48490 54000 83100 333 83807 95000 95100=
16362 42560 60606 10217 20143 30131 40146 50002 86800 333 82820 85656=
16405 32560 20610 10233 20181 30116 40140 52004 82100 333 82825=
16420 42697 62306 10220 20174 30080 40143 53002 83550 333 83640 84358 555 0////=
16429 42565 59901 10224 20184 30126 40137 51005 82535 333 82620 83359=
16459 42560 70504 10228 20228 30117 40151 51007 85270 333 82820 83830 85358=
16460 32560 40505 10224 20177 30136 40150 52007 84500 333 84640=
16520 32965 02901 10187 20153 30122 40155 54000=
16522 42998 32506 10210 20170 39920 40157 55000 80001 555 0////=
16531 36/// /2103 10184 20170 30143 40156 52004=
16546 42965 60603 10190 20182 30120 40148 56006 83032 333 83360=
16550 42898 43110 10184 20137 39971 40147 51002 85070 333 82358 83460 555 0////=
16560 32980 00203 10196 20176 30147 40151 57004=
16564 42498 61003 10218 20140 30006 40144 54003 83830 333 82810 83620 555 0////=
16597 32463 61006 10221 20191 30039 40144 52005 86200 333 60007 86817 91111 91206=
16650 46/// /0413 10196 20158 30150 40151 52002 333 91124=
16732 47/// /3621 10220 20182 30115 40126 52001 74144 333 91132 555 60000 65=
16742 42460 13407 10232 20185 40102 50003 81100 333 91117 555 40000 47503 44=
16749 42960 02409 10246 20216 30082 40095 51006 333 91116 555 40000 47598 44=
16754 42560 33307 10240 20210 30080 40126 52004 83100 333 91111 555 40000 47=
16760 46/// /0205 10210 20201 39735 40137 52004 333 91109=
16765 46/// /2917 10234 20202 30086 40105 52003 333 91128=
17022 42670 70704 10195 20146 39997 40157 58002 84270 333 84834 87360 91112 =
17026 42570 52401 10194 20160 30112 40149 58001 83260 333 83830 85358 91106 =
17030 42670 33201 10209 20156 30155 40159 50000 83100 333 83836 91110 92428=
17038 41460 70402 10236 20201 30103 40149 51001 78022 87200 333 82712 86828 =
17045 42670 50000 10204 20158 39440 40140 58001 83250 333 83840 85360 91109=
17056 42970 33105 10177 20153 30164 40168 58001 83030 333 83360 91110 92438=
17060 42660 50510 10215 20124 30124 40162 50002 85100 333 85840 91122=
17068 42560 71502 10180 20172 30077 40159 50000 86270 333 86823 87359 91108=
17069 42670 70304 10205 20169 30110 40146 58001 84250 333 84840 87360 91108=
17070 42565 70903 10157 20133 39301 40134 58002 84250 333 84830 86360 91108=
17082 42660 30211 10184 20141 39538 40127 50000 83100 333 83840 91120=
17084 42670 10405 10174 20139 39265 40125 51006 81100 333 81835 91117=
17086 42970 31006 10203 20127 39443 40119 50000 83030 333 83360 91114=
17092 42970 03603 10180 20123 38843 48496 50008 333 91119=
17096 41670 50718 10140 20102 38243 48496 58006 72991 83140 333 83840 85358 =
17098 41660 53104 10137 20110 38220 48513 50004 70292 85200 333 85835 91116=
17099 42565 23003 10172 20118 38358 48487 52007 82100 333 82830 91112=
17115 42960 30614 10204 20143 30104 40153 50006 83030 333 83360 91128=
17116 42665 50507 10214 20164 30020 40136 50005 83250 333 83835 85360 91114=
17124 42660 33008 10165 20140 39248 40121 52011 83100 333 83840 91115=
17128 42670 30209 10173 20133 39070 40115 50004 83100 333 83840 91115=
17129 42960 20808 10207 20137 39216 40103 51005 82030 333 82360 91117=
17130 42970 00410 10194 20136 39128 40100 51005 333 91115=
17150 42660 33406 10197 20139 30028 40146 50007 83100 333 83835 91115=
17160 42970 03409 10198 20126 38992 48493 52004 333 91123=
17170 42660 32102 10167 20104 38317 48478 50000 83100 333 83840 91105=
17184 42970 03406 10214 20139 30016 40121 50011 333 91114=
17186 42670 40703 10235 20159 30034 40115 51012 84200 333 84837 91110=
17193 42970 00000 10180 20122 38747 48504 50001 333 91110=
17195 42970 20807 10189 20120 38949 48496 50005 82030 333 82362 91113=
17200 42960 01703 10227 20111 39133 40043 52011 333 91127=
17202 42960 22308 10244 20107 39077 40035 52012 82030 333 82360 91112=
17203 42670 20000 10235 20124 38832 48513 52012 82100 333 82840=
17218 42960 03606 10237 20156 30112 40118 51003 333 91113=
17219 42965 03610 10235 20178 39977 40114 50006 333 91124=
17220 42970 02703 10251 20189 30079 40112 50002 333 91111 92428=
17234 42970 02602 10238 20183 30035 40099 52008 333 91108=
17237 42670 52101 10242 20152 39621 40095 52014 83250 333 83840 85360 91106=
17240 42570 43401 10205 20128 39009 40088 52008 84200 333 84830 91106=
17244 42670 43407 10208 20124 38970 48496 50002 82130 333 82840 84360 91110=
17250 42670 30403 10186 20122 38787 48496 50003 83200 333 83840 91110=
17260 42960 02304 10228 20148 39280 40037 50000 333 91113=
17280 42960 32001 10271 20094 39288 40007 52006 83030 333 83360 91113=
17282 42670 41001 10237 20123 39362 40019 51006 84200 333 84840 91107=
17290 42970 01802 10249 20174 30068 40098 50003 333 91105 92418=
17292 42970 03101 10218 20147 39378 40089 50007 333 91108=
17295 42960 00504 10232 20186 30087 40094 50005 333 91111=
17298 42970 02606 10242 20201 30076 40094 50004 333 91112 92428=
17300 42560 31102 10241 20218 30031 40098 51004 83100 333 83830 91106=
17320 42970 01002 10242 20227 30083 40088 52003 333 92428=
17340 42970 02402 10263 20213 30082 40090 58002 333 92428=
17350 42560 41402 10246 20213 30013 40087 50004 84200 333 84830=
17352 42660 31501 10243 20220 30068 40091 52003 83100 333 83835=
17370 42670 42507 10264 20221 30090 40094 58001 84200 333 84835 91112 92428=
17601 469// /2711 10243 20214 30060 40090 51002 333 55300 2//// 8//99 555 7/090=